createdAt,value
2023-05-07T00:00:21.231Z,80.46
2023-05-07T00:02:48.787Z,80.07
2023-05-07T00:05:16.652Z,80.22
2023-05-07T00:07:44.195Z,80.32
2023-05-07T00:10:13.861Z,80.20
2023-05-07T00:12:42.206Z,80.37
2023-05-07T00:15:10.341Z,80.35
2023-05-07T00:17:38.113Z,80.20
2023-05-07T00:20:06.516Z,80.30
2023-05-07T00:22:33.973Z,80.44
2023-05-07T00:25:01.575Z,80.48
2023-05-07T00:27:28.732Z,80.36
2023-05-07T00:29:56.675Z,80.35
2023-05-07T00:32:24.089Z,80.51
2023-05-07T00:34:52.391Z,80.46
2023-05-07T00:37:20.197Z,80.47
2023-05-07T00:39:47.523Z,80.56
2023-05-07T00:42:16.438Z,80.60
2023-05-07T00:44:44.182Z,80.69
2023-05-07T00:47:12.023Z,80.81
2023-05-07T00:49:42.382Z,80.51
2023-05-07T00:52:12.620Z,80.47
2023-05-07T00:54:41.700Z,80.56
2023-05-07T00:57:11.261Z,80.65
2023-05-07T00:59:39.860Z,80.55
2023-05-07T01:06:02.885Z,80.68
2023-05-07T01:09:56.711Z,80.61
2023-05-07T01:13:46.844Z,80.74
2023-05-07T01:17:36.984Z,80.71
2023-05-07T01:21:28.333Z,80.68
2023-05-07T01:25:24.235Z,80.75
2023-05-07T01:29:16.292Z,80.62
2023-05-07T01:33:05.337Z,80.53
2023-05-07T01:36:58.160Z,80.52
2023-05-07T01:40:45.745Z,80.61
2023-05-07T01:44:33.213Z,80.43
2023-05-07T01:48:20.496Z,80.41
2023-05-07T01:52:11.970Z,80.51
2023-05-07T01:55:58.921Z,80.40
2023-05-07T01:59:32.439Z,80.46
2023-05-07T02:03:19.716Z,80.51
2023-05-07T02:07:07.542Z,80.47
2023-05-07T02:14:45.133Z,80.53
2023-05-07T02:18:12.649Z,80.40
2023-05-07T02:21:39.677Z,80.29
2023-05-07T02:25:26.826Z,80.23
2023-05-07T02:29:13.973Z,80.30
2023-05-07T02:33:00.801Z,80.39
2023-05-07T02:36:31.668Z,80.31
2023-05-07T02:40:05.908Z,80.47
2023-05-07T02:43:53.090Z,80.40
2023-05-07T02:47:20.134Z,80.49
2023-05-07T02:51:07.891Z,80.43
2023-05-07T02:54:40.419Z,80.44
2023-05-07T02:58:14.973Z,80.62
2023-05-07T03:01:50.861Z,80.72
2023-05-07T03:05:18.013Z,80.67
2023-05-07T03:09:05.298Z,80.70
2023-05-07T03:12:52.379Z,80.55
2023-05-07T03:16:39.336Z,80.51
2023-05-07T03:20:26.644Z,80.62
2023-05-07T03:24:13.561Z,80.76
2023-05-07T03:28:06.130Z,80.77
2023-05-07T03:31:53.324Z,80.88
2023-05-07T03:35:01.321Z,80.85
2023-05-07T03:38:52.869Z,80.82
2023-05-07T03:42:40.079Z,80.81
2023-05-07T03:45:50.555Z,80.88
2023-05-07T03:49:17.800Z,81.00
2023-05-07T03:53:06.144Z,80.88
2023-05-07T03:56:57.656Z,80.91
2023-05-07T04:04:28.700Z,80.69
2023-05-07T04:08:17.802Z,80.73
2023-05-07T04:15:34.547Z,80.86
2023-05-07T04:19:21.352Z,80.82
2023-05-07T04:23:11.343Z,80.83
2023-05-07T04:26:51.877Z,80.79
2023-05-07T04:30:35.950Z,80.68
2023-05-07T04:34:15.617Z,80.66
2023-05-07T04:37:45.562Z,80.71
2023-05-07T04:41:33.998Z,80.66
2023-05-07T04:45:01.449Z,80.69
2023-05-07T04:48:31.997Z,80.65
2023-05-07T04:52:15.615Z,80.75
2023-05-07T04:56:02.751Z,80.81
2023-05-07T04:59:30.346Z,80.84
2023-05-07T05:02:57.390Z,80.88
2023-05-07T05:06:44.291Z,81.03
2023-05-07T05:10:31.509Z,80.95
2023-05-07T05:14:20.992Z,80.89
2023-05-07T05:17:49.666Z,81.04
2023-05-07T05:21:36.806Z,80.94
2023-05-07T05:25:23.701Z,80.84
2023-05-07T05:29:13.586Z,80.97
2023-05-07T05:33:08.821Z,81.01
2023-05-07T05:36:59.710Z,80.96
2023-05-07T05:40:54.349Z,81.09
2023-05-07T05:44:40.889Z,80.96
2023-05-07T05:48:28.120Z,81.09
2023-05-07T05:52:05.594Z,80.95
2023-05-07T05:55:52.864Z,80.95
2023-05-07T05:59:39.877Z,80.92
2023-05-07T06:02:48.680Z,81.00
2023-05-07T06:06:24.366Z,80.84
2023-05-07T06:13:36.184Z,80.90
2023-05-07T06:17:04.197Z,80.77
2023-05-07T06:20:32.047Z,80.83
2023-05-07T06:23:58.988Z,80.95
2023-05-07T06:27:46.156Z,80.92
2023-05-07T06:31:21.265Z,80.96
2023-05-07T06:34:54.750Z,81.02
2023-05-07T06:42:33.295Z,80.97
2023-05-07T06:45:41.276Z,80.87
2023-05-07T06:49:28.657Z,81.10
2023-05-07T06:52:58.592Z,80.95
2023-05-07T06:56:26.820Z,81.08
2023-05-07T06:59:39.158Z,81.15
2023-05-07T07:02:52.262Z,81.31
2023-05-07T07:06:38.241Z,80.97
2023-05-07T07:10:24.683Z,80.89
2023-05-07T07:13:49.199Z,81.10
2023-05-07T07:17:06.846Z,81.15
2023-05-07T07:20:36.127Z,81.09
2023-05-07T07:23:08.405Z,81.07
2023-05-07T07:26:07.520Z,80.87
2023-05-07T07:29:34.484Z,80.98
2023-05-07T07:32:25.730Z,81.02
2023-05-07T07:35:46.373Z,81.13
2023-05-07T07:38:27.647Z,80.99
2023-05-07T07:41:51.386Z,80.94
2023-05-07T07:45:18.696Z,80.89
2023-05-07T07:48:46.977Z,80.98
2023-05-07T07:51:38.889Z,80.90
2023-05-07T07:54:07.759Z,81.13
2023-05-07T07:56:35.896Z,81.17
2023-05-07T07:59:03.483Z,80.97
2023-05-07T08:01:34.375Z,81.06
2023-05-07T08:04:01.941Z,80.99
2023-05-07T08:06:29.396Z,80.95
2023-05-07T08:08:56.826Z,81.05
2023-05-07T08:11:24.259Z,80.81
2023-05-07T08:13:51.767Z,80.76
2023-05-07T08:16:19.387Z,80.90
2023-05-07T08:18:47.598Z,81.03
2023-05-07T08:22:14.555Z,81.12
2023-05-07T08:25:51.395Z,81.18
2023-05-07T08:29:05.696Z,81.25
2023-05-07T08:32:37.156Z,81.27
2023-05-07T08:35:46.244Z,81.32
2023-05-07T08:38:56.636Z,80.85
2023-05-07T08:42:26.382Z,81.14
2023-05-07T08:45:13.681Z,81.28
2023-05-07T08:48:41.344Z,81.06
2023-05-07T08:51:40.710Z,80.93
2023-05-07T08:54:10.899Z,81.09
2023-05-07T08:56:58.949Z,80.82
2023-05-07T08:59:28.101Z,80.80
2023-05-07T09:01:56.475Z,80.77
2023-05-07T09:04:36.015Z,81.04
2023-05-07T09:07:17.680Z,80.87
2023-05-07T09:10:07.514Z,80.88
2023-05-07T09:12:55.873Z,80.91
2023-05-07T09:15:43.550Z,81.08
2023-05-07T09:19:10.778Z,80.82
2023-05-07T09:21:52.861Z,80.94
2023-05-07T09:25:15.390Z,80.94
2023-05-07T09:28:12.919Z,80.81
2023-05-07T09:30:41.406Z,80.90
2023-05-07T09:33:41.356Z,80.89
2023-05-07T09:36:34.177Z,80.87
2023-05-07T09:39:44.976Z,80.99
2023-05-07T09:42:20.164Z,81.12
2023-05-07T09:45:47.350Z,80.90
2023-05-07T09:49:37.583Z,80.72
2023-05-07T09:52:23.374Z,80.83
2023-05-07T09:55:07.449Z,80.61
2023-05-07T09:58:18.725Z,80.64
2023-05-07T10:01:26.893Z,80.71
2023-05-07T10:04:19.023Z,80.80
2023-05-07T10:07:31.451Z,80.68
2023-05-07T10:11:04.240Z,80.66
2023-05-07T10:14:02.783Z,80.47
2023-05-07T10:17:14.362Z,80.75
2023-05-07T10:20:41.360Z,80.61
2023-05-07T10:23:56.762Z,80.61
2023-05-07T10:26:57.785Z,80.58
2023-05-07T10:30:27.568Z,80.44
2023-05-07T10:33:11.242Z,80.61
2023-05-07T10:36:03.001Z,80.40
2023-05-07T10:39:11.881Z,80.16
2023-05-07T10:41:52.434Z,80.09
2023-05-07T10:44:50.684Z,80.26
2023-05-07T10:47:23.954Z,79.90
2023-05-07T10:49:51.484Z,79.89
2023-05-07T10:52:41.777Z,79.83
2023-05-07T10:55:18.911Z,79.94
2023-05-07T10:57:46.543Z,79.95
2023-05-07T11:00:39.135Z,79.94
2023-05-07T11:03:08.635Z,79.92
2023-05-07T11:05:38.706Z,79.77
2023-05-07T11:08:07.368Z,79.59
2023-05-07T11:10:52.632Z,79.73
2023-05-07T11:13:40.704Z,79.70
2023-05-07T11:16:22.095Z,79.48
2023-05-07T11:18:53.280Z,79.41
2023-05-07T11:21:52.489Z,79.51
2023-05-07T11:24:23.731Z,79.43
2023-05-07T11:26:52.542Z,79.09
2023-05-07T11:29:44.438Z,78.73
2023-05-07T11:32:34.913Z,78.48
2023-05-07T11:35:03.904Z,78.82
2023-05-07T11:37:35.755Z,78.72
2023-05-07T11:40:09.811Z,78.81
2023-05-07T11:42:40.974Z,78.66
2023-05-07T11:45:10.175Z,78.46
2023-05-07T11:47:58.282Z,78.52
2023-05-07T11:50:26.625Z,78.64
2023-05-07T11:53:14.040Z,78.13
2023-05-07T11:55:42.057Z,78.24
2023-05-07T11:58:44.397Z,78.19
2023-05-07T12:01:14.062Z,78.11
2023-05-07T12:04:41.285Z,78.14
2023-05-07T12:08:28.124Z,78.10
2023-05-07T12:11:02.995Z,78.08
2023-05-07T12:13:54.666Z,78.15
2023-05-07T12:16:30.179Z,78.17
2023-05-07T12:19:51.183Z,78.12
2023-05-07T12:22:51.861Z,78.12
2023-05-07T12:25:50.797Z,77.95
2023-05-07T12:29:22.181Z,77.53
2023-05-07T12:32:11.949Z,77.22
2023-05-07T12:34:45.292Z,76.87
2023-05-07T12:37:16.048Z,76.70
2023-05-07T12:40:10.295Z,76.62
2023-05-07T12:42:39.006Z,76.51
2023-05-07T12:45:22.430Z,76.26
2023-05-07T12:47:50.906Z,76.42
2023-05-07T12:50:18.411Z,76.18
2023-05-07T12:52:47.290Z,76.07
2023-05-07T12:55:17.194Z,76.52
2023-05-07T12:57:50.490Z,76.65
2023-05-07T13:00:18.129Z,76.13
2023-05-07T13:02:47.072Z,76.23
2023-05-07T13:05:28.277Z,76.25
2023-05-07T13:08:00.355Z,76.29
2023-05-07T13:10:34.907Z,76.18
2023-05-07T13:13:05.090Z,76.28
2023-05-07T13:15:35.591Z,76.36
2023-05-07T13:18:24.081Z,76.33
2023-05-07T13:20:52.786Z,76.39
2023-05-07T13:23:28.032Z,76.33
2023-05-07T13:25:57.408Z,76.34
2023-05-07T13:28:30.041Z,76.04
2023-05-07T13:31:19.045Z,75.75
2023-05-07T13:33:47.369Z,75.92
2023-05-07T13:36:15.860Z,75.62
2023-05-07T13:38:44.300Z,75.69
2023-05-07T13:41:32.734Z,75.37
2023-05-07T13:44:00.880Z,75.41
2023-05-07T13:46:36.184Z,75.51
2023-05-07T13:49:04.329Z,75.38
2023-05-07T13:51:34.725Z,75.41
2023-05-07T13:54:02.881Z,74.89
2023-05-07T13:56:32.812Z,74.92
2023-05-07T13:59:01.009Z,75.28
2023-05-07T14:01:29.828Z,75.10
2023-05-07T14:03:59.301Z,75.16
2023-05-07T14:06:27.410Z,75.29
2023-05-07T14:08:54.936Z,75.27
2023-05-07T14:11:22.923Z,75.21
2023-05-07T14:13:50.224Z,74.96
2023-05-07T14:16:17.754Z,75.08
2023-05-07T14:18:45.216Z,75.19
2023-05-07T14:21:12.993Z,75.15
2023-05-07T14:23:40.356Z,75.20
2023-05-07T14:26:07.864Z,75.28
2023-05-07T14:28:35.461Z,75.40
2023-05-07T14:31:02.987Z,75.53
2023-05-07T14:33:30.401Z,75.33
2023-05-07T14:35:58.310Z,75.25
2023-05-07T14:38:25.593Z,75.29
2023-05-07T14:40:56.966Z,75.47
2023-05-07T14:43:24.143Z,75.59
2023-05-07T14:45:51.532Z,75.54
2023-05-07T14:48:21.272Z,75.66
2023-05-07T14:50:49.759Z,75.61
2023-05-07T14:53:17.551Z,75.54
2023-05-07T14:55:44.858Z,75.57
2023-05-07T14:58:13.215Z,75.35
2023-05-07T15:00:40.453Z,75.48
2023-05-07T15:03:11.617Z,75.42
2023-05-07T15:05:39.261Z,75.43
2023-05-07T15:08:06.907Z,75.40
2023-05-07T15:10:42.515Z,75.38
2023-05-07T15:13:14.560Z,75.45
2023-05-07T15:15:47.329Z,75.42
2023-05-07T15:18:15.972Z,75.46
2023-05-07T15:20:44.306Z,75.51
2023-05-07T15:23:13.475Z,75.62
2023-05-07T15:25:41.034Z,75.50
2023-05-07T15:28:08.331Z,75.53
2023-05-07T15:30:36.059Z,75.68
2023-05-07T15:33:04.664Z,75.68
2023-05-07T15:35:32.041Z,75.78
2023-05-07T15:37:59.624Z,75.74
2023-05-07T15:40:27.643Z,75.78
2023-05-07T15:42:57.611Z,75.65
2023-05-07T15:45:26.113Z,75.71
2023-05-07T15:47:53.644Z,75.53
2023-05-07T15:50:21.230Z,75.45
2023-05-07T15:52:48.508Z,75.63
2023-05-07T15:55:15.897Z,75.70
2023-05-07T15:57:43.124Z,75.62
2023-05-07T16:00:13.241Z,75.65
2023-05-07T16:02:40.896Z,75.56
2023-05-07T16:05:12.523Z,75.62
2023-05-07T16:07:40.626Z,75.76
2023-05-07T16:10:10.179Z,75.69
2023-05-07T16:12:37.675Z,75.57
2023-05-07T16:15:05.516Z,75.69
2023-05-07T16:17:32.789Z,75.64
2023-05-07T16:20:00.462Z,75.66
2023-05-07T16:22:30.117Z,75.74
2023-05-07T16:24:57.544Z,75.68
2023-05-07T16:27:25.012Z,75.49
2023-05-07T16:29:52.308Z,75.64
2023-05-07T16:32:19.938Z,75.66
2023-05-07T16:34:47.498Z,75.34
2023-05-07T16:37:15.034Z,75.29
2023-05-07T16:39:42.364Z,75.29
2023-05-07T16:42:09.718Z,75.40
2023-05-07T16:44:37.309Z,75.34
2023-05-07T16:47:04.636Z,75.50
2023-05-07T16:49:32.036Z,75.44
2023-05-07T16:52:00.150Z,75.54
2023-05-07T16:54:27.411Z,75.59
2023-05-07T16:56:54.797Z,75.51
2023-05-07T16:59:23.599Z,75.62
2023-05-07T17:01:52.905Z,75.47
2023-05-07T17:04:20.817Z,75.54
2023-05-07T17:06:48.859Z,75.44
2023-05-07T17:09:16.174Z,75.39
2023-05-07T17:11:43.677Z,75.23
2023-05-07T17:14:11.904Z,75.37
2023-05-07T17:16:39.406Z,75.10
2023-05-07T17:19:06.964Z,75.00
2023-05-07T17:21:34.694Z,75.12
2023-05-07T17:24:02.078Z,75.23
2023-05-07T17:26:30.026Z,75.15
2023-05-07T17:28:57.699Z,75.35
2023-05-07T17:31:25.227Z,75.35
2023-05-07T17:33:52.938Z,75.15
2023-05-07T17:36:21.004Z,75.22
2023-05-07T17:38:51.364Z,75.40
2023-05-07T17:41:18.634Z,75.21
2023-05-07T17:43:46.294Z,75.32
2023-05-07T17:46:13.441Z,75.18
2023-05-07T17:48:43.309Z,75.24
2023-05-07T17:51:10.955Z,75.27
2023-05-07T17:53:38.741Z,75.25
2023-05-07T17:56:08.285Z,75.26
2023-05-07T17:58:42.748Z,75.22
2023-05-07T18:01:15.852Z,75.29
2023-05-07T18:03:43.900Z,75.29
2023-05-07T18:06:11.387Z,75.24
2023-05-07T18:08:38.812Z,75.37
2023-05-07T18:11:06.790Z,75.37
2023-05-07T18:13:39.478Z,75.36
2023-05-07T18:16:07.143Z,75.38
2023-05-07T18:18:36.197Z,75.41
2023-05-07T18:21:24.630Z,75.54
2023-05-07T18:23:53.211Z,75.52
2023-05-07T18:26:20.561Z,75.56
2023-05-07T18:28:54.833Z,75.52
2023-05-07T18:31:24.183Z,75.47
2023-05-07T18:33:56.869Z,75.52
2023-05-07T18:36:29.298Z,75.59
2023-05-07T18:39:22.375Z,75.43
2023-05-07T18:41:55.831Z,75.50
2023-05-07T18:44:32.994Z,75.59
2023-05-07T18:47:01.369Z,75.59
2023-05-07T18:49:30.229Z,75.62
2023-05-07T18:51:58.035Z,75.57
2023-05-07T18:54:25.978Z,75.62
2023-05-07T18:56:58.411Z,75.57
2023-05-07T18:59:26.766Z,75.65
2023-05-07T19:01:58.560Z,75.71
2023-05-07T19:04:31.564Z,75.64
2023-05-07T19:06:59.641Z,75.85
2023-05-07T19:09:27.349Z,75.44
2023-05-07T19:12:10.023Z,75.82
2023-05-07T19:14:42.717Z,75.65
2023-05-07T19:17:10.919Z,75.65
2023-05-07T19:19:39.574Z,75.63
2023-05-07T19:22:27.172Z,75.61
2023-05-07T19:24:54.629Z,75.55
2023-05-07T19:27:22.574Z,75.70
2023-05-07T19:29:50.249Z,75.57
2023-05-07T19:32:17.675Z,75.69
2023-05-07T19:34:45.284Z,75.62
2023-05-07T19:37:14.240Z,75.62
2023-05-07T19:39:42.397Z,75.55
2023-05-07T19:42:10.528Z,75.79
2023-05-07T19:44:38.808Z,75.68
2023-05-07T19:47:07.345Z,75.67
2023-05-07T19:49:34.648Z,75.68
2023-05-07T19:52:05.961Z,75.52
2023-05-07T19:54:34.275Z,75.67
2023-05-07T19:57:01.975Z,75.59
2023-05-07T19:59:29.600Z,75.71
2023-05-07T20:01:57.482Z,75.75
2023-05-07T20:04:30.398Z,75.68
2023-05-07T20:06:57.824Z,75.76
2023-05-07T20:09:25.483Z,75.77
2023-05-07T20:11:53.548Z,75.60
2023-05-07T20:14:21.000Z,75.72
2023-05-07T20:16:48.695Z,75.68
2023-05-07T20:19:16.178Z,75.74
2023-05-07T20:21:43.561Z,75.64
2023-05-07T20:24:11.128Z,75.57
2023-05-07T20:26:39.756Z,75.50
2023-05-07T20:29:07.532Z,75.62
2023-05-07T20:31:35.790Z,75.64
2023-05-07T20:34:03.643Z,75.60
2023-05-07T20:36:30.848Z,75.51
2023-05-07T20:38:58.367Z,75.60
2023-05-07T20:41:26.689Z,75.80
2023-05-07T20:43:54.075Z,75.66
2023-05-07T20:46:23.269Z,75.60
2023-05-07T20:48:51.129Z,75.66
2023-05-07T20:51:18.592Z,75.86
2023-05-07T20:53:47.814Z,75.69
2023-05-07T20:56:16.044Z,75.75
2023-05-07T20:58:43.508Z,75.91
2023-05-07T21:01:11.462Z,76.13
2023-05-07T21:03:38.735Z,75.92
2023-05-07T21:06:06.095Z,75.95
2023-05-07T21:08:33.600Z,76.27
2023-05-07T21:11:00.946Z,76.05
2023-05-07T21:13:28.362Z,76.25
2023-05-07T21:15:56.086Z,76.17
2023-05-07T21:18:23.740Z,76.34
2023-05-07T21:20:51.111Z,76.63
2023-05-07T21:23:18.758Z,76.16
2023-05-07T21:25:48.065Z,76.18
2023-05-07T21:28:18.116Z,76.10
2023-05-07T21:30:45.877Z,76.34
2023-05-07T21:33:13.155Z,76.63
2023-05-07T21:35:40.505Z,76.40
2023-05-07T21:38:08.018Z,76.67
2023-05-07T21:40:35.464Z,76.68
2023-05-07T21:43:02.701Z,76.78
2023-05-07T21:45:30.078Z,77.02
2023-05-07T21:47:57.742Z,76.75
2023-05-07T21:50:25.028Z,76.92
2023-05-07T21:52:52.665Z,76.77
2023-05-07T21:55:20.636Z,76.78
2023-05-07T21:58:01.134Z,76.72
2023-05-07T22:00:31.085Z,76.91
2023-05-07T22:02:58.510Z,76.74
2023-05-07T22:05:25.928Z,76.59
2023-05-07T22:07:56.400Z,76.72
2023-05-07T22:14:12.160Z,76.63
2023-05-07T22:16:41.312Z,76.42
2023-05-07T22:19:08.538Z,76.23
2023-05-07T22:21:35.816Z,76.17
2023-05-07T22:24:03.300Z,76.22
2023-05-07T22:26:30.609Z,76.22
2023-05-07T22:28:58.341Z,76.14
2023-05-07T22:31:26.577Z,76.05
2023-05-07T22:33:53.978Z,76.04
2023-05-07T22:36:21.181Z,76.16
2023-05-07T22:38:48.503Z,76.22
2023-05-07T22:41:16.088Z,76.17
2023-05-07T22:43:45.111Z,76.14
2023-05-07T22:46:12.580Z,76.08
2023-05-07T22:48:39.836Z,75.99
2023-05-07T22:51:07.234Z,75.90
2023-05-07T22:53:34.823Z,76.02
2023-05-07T22:56:06.568Z,75.95
2023-05-07T22:58:41.289Z,75.69
2023-05-07T23:01:30.374Z,75.54
2023-05-07T23:04:00.488Z,75.56
2023-05-07T23:06:31.109Z,75.33
2023-05-07T23:09:03.287Z,75.06
2023-05-07T23:12:06.597Z,75.14
2023-05-07T23:14:44.698Z,75.13
2023-05-07T23:17:15.650Z,75.44
2023-05-07T23:19:43.878Z,75.42
2023-05-07T23:22:52.895Z,75.35
2023-05-07T23:25:23.596Z,75.40
2023-05-07T23:27:51.196Z,75.40
2023-05-07T23:30:19.891Z,75.42
2023-05-07T23:32:48.538Z,75.32
2023-05-07T23:35:16.485Z,75.12
2023-05-07T23:37:43.918Z,75.32
2023-05-07T23:40:14.934Z,75.15
2023-05-07T23:42:44.511Z,75.20
2023-05-07T23:45:14.750Z,75.02
2023-05-07T23:47:42.703Z,75.25
2023-05-07T23:50:12.681Z,74.89
2023-05-07T23:52:45.048Z,74.82
2023-05-07T23:55:31.793Z,75.05
2023-05-07T23:57:59.127Z,75.12
